Time;durP1;ratioP1;P1;durP2;ratioP2;P2;SDS_P1;SDS_P2;PMS_P1;PMS_P2;Temp;Humidity;BMP_temperature;BMP_pressure;BME280_temperature;BME280_humidity;BME280_pressure;Samples;Min_cycle;Max_cycle;Signal;HPM_P1;HPM_P2
2023/01/12 00:02:06;;;;;;;1.17;1.07;;;9.90;99.90;;;;;;5005246;28;20290;-66
2023/01/12 00:04:33;;;;;;;1.20;1.10;;;9.90;99.90;;;;;;5033947;28;20205;-66
2023/01/12 00:07:01;;;;;;;1.00;1.00;;;9.80;99.90;;;;;;4990942;28;20275;-66
2023/01/12 00:09:28;;;;;;;0.90;0.90;;;9.80;99.90;;;;;;4991313;28;20293;-65
2023/01/12 00:11:55;;;;;;;1.00;1.00;;;9.70;99.90;;;;;;5017060;28;20209;-66
2023/01/12 00:14:22;;;;;;;0.90;0.90;;;9.70;99.90;;;;;;4993516;28;20210;-66
2023/01/12 00:16:49;;;;;;;1.00;0.90;;;9.70;99.90;;;;;;4989795;28;20233;-64
2023/01/12 00:19:17;;;;;;;0.80;0.80;;;9.70;99.90;;;;;;5009070;28;20269;-67
2023/01/12 00:21:51;;;;;;;0.80;0.80;;;9.60;99.90;;;;;;5009987;28;20293;-66
2023/01/12 00:24:20;;;;;;;0.80;0.80;;;9.50;99.90;;;;;;5008952;28;20197;-64
2023/01/12 00:26:48;;;;;;;0.93;0.90;;;9.40;99.90;;;;;;5011586;28;20236;-65
2023/01/12 00:29:15;;;;;;;1.37;1.10;;;9.40;99.90;;;;;;5014056;28;20233;-65
2023/01/12 00:31:42;;;;;;;1.10;1.00;;;9.40;99.90;;;;;;5011274;28;20201;-65
2023/01/12 00:34:19;;;;;;;1.20;0.80;;;9.40;99.90;;;;;;4999509;28;20257;-66
2023/01/12 00:36:51;;;;;;;0.80;0.80;;;9.50;99.90;;;;;;4995238;28;20229;-65
2023/01/12 00:39:21;;;;;;;1.17;1.10;;;9.50;99.90;;;;;;5004970;28;20202;-65
2023/01/12 00:47:37;;;;;;;0.90;0.90;;;9.50;99.90;;;;;;4987066;28;20236;-66
2023/01/12 00:50:08;;;;;;;1.10;1.10;;;9.50;99.90;;;;;;4992528;28;20212;-64
2023/01/12 00:52:38;;;;;;;1.30;1.20;;;9.50;99.90;;;;;;4991708;28;20210;-66
2023/01/12 00:55:12;;;;;;;0.90;0.90;;;9.60;99.90;;;;;;4988147;28;20210;-65
2023/01/12 00:57:45;;;;;;;0.98;0.98;;;9.60;99.90;;;;;;4996202;28;20225;-65
2023/01/12 01:00:17;;;;;;;1.00;1.00;;;9.70;99.90;;;;;;4989231;28;20202;-66
2023/01/12 01:02:48;;;;;;;1.33;1.23;;;9.70;99.90;;;;;;5035827;28;20221;-65
2023/01/12 01:05:27;;;;;;;0.80;0.80;;;9.70;99.90;;;;;;4990228;28;20292;-64
2023/01/12 01:10:42;;;;;;;1.33;1.10;;;9.80;99.90;;;;;;5016054;28;20250;-65
2023/01/12 01:13:11;;;;;;;1.20;1.10;;;9.90;99.90;;;;;;4982665;28;20210;-65
2023/01/12 01:15:42;;;;;;;0.80;0.80;;;9.90;99.90;;;;;;4988583;28;20230;-65
2023/01/12 01:18:13;;;;;;;1.13;1.03;;;9.90;99.90;;;;;;4990433;28;20313;-65
2023/01/12 01:20:43;;;;;;;1.23;1.13;;;10.00;99.90;;;;;;5000745;28;20233;-67
2023/01/12 01:23:18;;;;;;;1.47;1.33;;;10.00;99.90;;;;;;4994264;28;20238;-65
2023/01/12 01:25:59;;;;;;;1.27;1.17;;;10.10;99.90;;;;;;4998518;28;20210;-65
2023/01/12 01:28:31;;;;;;;1.00;1.00;;;10.10;99.90;;;;;;4994520;28;20224;-66
2023/01/12 01:31:03;;;;;;;1.95;1.30;;;10.10;99.90;;;;;;4994017;28;20214;-67
2023/01/12 01:33:31;;;;;;;1.20;1.10;;;10.10;99.90;;;;;;4992665;28;20237;-65
2023/01/12 01:36:05;;;;;;;1.00;1.00;;;10.10;99.90;;;;;;4989177;28;20264;-65
2023/01/12 01:38:35;;;;;;;1.07;0.97;;;10.10;99.90;;;;;;4989143;28;20206;-66
2023/01/12 01:41:06;;;;;;;1.30;1.20;;;10.10;99.90;;;;;;4989001;28;20206;-66
2023/01/12 01:43:53;;;;;;;1.20;1.10;;;10.20;99.90;;;;;;4989529;28;20206;-65
2023/01/12 01:46:46;;;;;;;0.90;0.90;;;10.10;99.90;;;;;;4986840;28;20283;-65
2023/01/12 01:49:37;;;;;;;1.00;1.00;;;10.10;99.90;;;;;;4990384;28;20382;-65
2023/01/12 01:52:19;;;;;;;0.90;0.90;;;10.10;99.90;;;;;;4981675;28;20202;-64
2023/01/12 01:55:01;;;;;;;0.80;0.80;;;10.00;99.90;;;;;;4993799;28;20289;-66
2023/01/12 01:57:34;;;;;;;1.10;1.10;;;10.00;99.90;;;;;;4985504;28;20226;-66
2023/01/12 02:00:06;;;;;;;0.90;0.90;;;10.00;99.90;;;;;;4988418;28;20244;-65
2023/01/12 02:02:35;;;;;;;1.07;1.07;;;9.90;99.90;;;;;;5002513;28;21288;-66
2023/01/12 02:05:03;;;;;;;1.30;1.20;;;9.90;99.90;;;;;;4987970;28;20229;-65
2023/01/12 02:07:33;;;;;;;1.23;1.10;;;9.90;99.90;;;;;;4988758;28;20238;-66
2023/01/12 02:10:06;;;;;;;1.13;1.03;;;9.90;99.90;;;;;;4988296;28;20206;-65
2023/01/12 02:18:19;;;;;;;0.73;0.73;;;9.70;99.90;;;;;;4998749;28;20228;-65
2023/01/12 02:21:06;;;;;;;1.13;1.10;;;9.60;99.90;;;;;;5007669;28;20215;-66
2023/01/12 02:24:10;;;;;;;1.00;1.00;;;9.50;99.90;;;;;;5005578;28;20209;-65
2023/01/12 02:27:16;;;;;;;1.00;1.00;;;9.50;99.90;;;;;;5000522;28;20237;-66
2023/01/12 02:30:34;;;;;;;1.07;1.03;;;9.50;99.90;;;;;;5001931;28;20225;-66
2023/01/12 02:33:25;;;;;;;1.70;1.20;;;9.40;99.90;;;;;;5039664;28;20203;-65
2023/01/12 02:36:03;;;;;;;2.07;1.53;;;9.40;99.90;;;;;;5014087;28;20223;-68
2023/01/12 02:38:36;;;;;;;1.20;1.10;;;9.40;99.90;;;;;;5012123;28;20202;-65
2023/01/12 02:41:11;;;;;;;1.60;1.50;;;9.50;99.90;;;;;;5023747;28;20212;-65
2023/01/12 02:43:45;;;;;;;1.60;1.07;;;9.40;99.90;;;;;;5007237;28;20683;-66
2023/01/12 02:46:20;;;;;;;0.93;0.93;;;9.50;99.90;;;;;;5067990;28;20199;-65
2023/01/12 02:48:56;;;;;;;1.00;1.00;;;9.60;99.90;;;;;;5001879;28;20229;-66
2023/01/12 02:51:32;;;;;;;1.37;1.23;;;9.60;99.90;;;;;;4991839;28;20202;-66
2023/01/12 02:54:04;;;;;;;1.10;1.10;;;9.70;99.90;;;;;;4986843;28;20220;-64
2023/01/12 02:56:42;;;;;;;1.63;1.52;;;9.70;99.90;;;;;;4988432;28;20228;-66
2023/01/12 02:59:18;;;;;;;1.40;1.30;;;9.70;99.90;;;;;;4978312;28;20201;-65
2023/01/12 03:01:51;;;;;;;1.30;1.20;;;9.80;99.90;;;;;;4996175;28;20209;-65
2023/01/12 03:04:27;;;;;;;2.23;1.40;;;9.80;99.90;;;;;;4992751;28;20912;-65
2023/01/12 03:07:22;;;;;;;1.50;1.37;;;9.90;99.90;;;;;;4988901;28;20233;-65
2023/01/12 03:10:08;;;;;;;1.00;1.00;;;9.90;99.90;;;;;;4988583;28;20245;-66
2023/01/12 03:12:38;;;;;;;1.07;1.00;;;10.00;99.90;;;;;;4984015;28;20213;-64
2023/01/12 03:15:13;;;;;;;1.20;1.10;;;10.00;99.90;;;;;;4988010;28;20359;-65
2023/01/12 03:17:49;;;;;;;2.20;1.38;;;10.00;99.90;;;;;;4985642;28;20245;-65
2023/01/12 03:20:24;;;;;;;1.53;1.30;;;10.00;99.90;;;;;;4989136;28;20209;-66
2023/01/12 03:22:57;;;;;;;1.00;1.00;;;10.00;99.90;;;;;;4996805;28;20202;-66
2023/01/12 03:25:35;;;;;;;1.50;1.37;;;10.00;99.90;;;;;;4993068;28;20894;-66
2023/01/12 03:28:05;;;;;;;1.10;0.90;;;10.00;99.90;;;;;;4988719;28;20943;-65
2023/01/12 03:30:50;;;;;;;1.17;1.07;;;10.10;99.90;;;;;;4990474;28;20214;-66
2023/01/12 03:33:18;;;;;;;1.30;1.20;;;10.00;99.90;;;;;;4989410;28;20202;-67
2023/01/12 03:36:02;;;;;;;1.00;1.00;;;10.10;99.90;;;;;;4990558;28;20321;-65
2023/01/12 03:38:45;;;;;;;1.03;1.03;;;10.10;99.90;;;;;;4989362;28;20269;-65
2023/01/12 03:41:33;;;;;;;1.10;1.10;;;10.10;99.90;;;;;;5037947;28;20221;-65
2023/01/12 03:44:05;;;;;;;1.13;1.10;;;10.10;99.90;;;;;;4990570;28;20255;-66
2023/01/12 03:46:39;;;;;;;1.30;1.17;;;10.10;99.90;;;;;;4989285;28;20332;-66
2023/01/12 03:49:16;;;;;;;1.30;1.20;;;10.10;99.90;;;;;;4981743;28;20231;-64
2023/01/12 03:51:53;;;;;;;1.37;1.27;;;10.10;99.90;;;;;;4995893;28;20228;-65
2023/01/12 03:54:23;;;;;;;1.63;1.40;;;10.10;99.90;;;;;;4988870;28;20210;-65
2023/01/12 03:56:59;;;;;;;1.37;1.27;;;10.00;99.90;;;;;;4997500;28;20329;-67
2023/01/12 03:59:27;;;;;;;1.23;1.20;;;10.10;99.90;;;;;;4989260;28;20267;-65
2023/01/12 04:01:56;;;;;;;1.20;1.10;;;10.10;99.90;;;;;;5003248;28;20213;-66
2023/01/12 04:04:29;;;;;;;1.00;1.00;;;10.10;99.90;;;;;;4991375;28;20213;-65
2023/01/12 04:07:03;;;;;;;1.20;1.10;;;10.20;99.90;;;;;;5023990;28;20241;-66
2023/01/12 04:09:34;;;;;;;1.53;1.43;;;10.20;99.90;;;;;;4991252;28;20228;-64
2023/01/12 04:12:09;;;;;;;1.20;1.20;;;10.20;99.90;;;;;;4991521;28;20890;-64
2023/01/12 04:14:37;;;;;;;1.63;1.30;;;10.10;99.90;;;;;;5017823;28;20572;-66
2023/01/12 04:17:05;;;;;;;1.13;1.13;;;10.20;99.90;;;;;;4989743;28;20234;-65
2023/01/12 04:19:35;;;;;;;1.17;1.07;;;10.20;99.90;;;;;;5021268;28;20251;-66
2023/01/12 04:25:01;;;;;;;1.40;1.30;;;10.20;99.90;;;;;;4990508;28;20780;-66
2023/01/12 04:27:29;;;;;;;3.13;1.33;;;10.20;99.90;;;;;;4991153;28;20226;-65
2023/01/12 04:30:09;;;;;;;1.20;1.10;;;10.20;99.90;;;;;;4990382;28;20214;-65
2023/01/12 04:32:42;;;;;;;1.93;1.40;;;10.30;99.90;;;;;;4995027;28;20199;-65
2023/01/12 04:35:10;;;;;;;1.50;1.40;;;10.30;99.90;;;;;;5006729;28;20209;-65
2023/01/12 04:37:43;;;;;;;1.80;1.70;;;10.20;99.90;;;;;;4990195;28;20229;-66
2023/01/12 04:40:13;;;;;;;1.30;1.20;;;10.20;99.90;;;;;;4985457;28;20291;-65
2023/01/12 04:43:07;;;;;;;1.30;1.20;;;10.20;99.90;;;;;;4991088;28;20267;-66
2023/01/12 04:45:36;;;;;;;1.40;1.30;;;10.20;99.90;;;;;;4990646;28;20258;-65
2023/01/12 04:48:06;;;;;;;2.57;1.50;;;10.20;99.90;;;;;;4991131;28;20316;-65
2023/01/12 04:50:43;;;;;;;1.00;1.00;;;10.20;99.90;;;;;;4990728;28;20266;-64
2023/01/12 04:53:23;;;;;;;1.40;1.30;;;10.20;99.90;;;;;;4992368;28;20282;-66
2023/01/12 04:55:59;;;;;;;1.40;1.30;;;10.20;99.90;;;;;;4990614;28;20206;-66
2023/01/12 04:58:28;;;;;;;1.30;1.20;;;10.20;99.90;;;;;;4989851;28;20198;-64
2023/01/12 05:01:07;;;;;;;1.13;1.13;;;10.30;99.90;;;;;;4989903;28;20233;-65
2023/01/12 05:03:40;;;;;;;1.43;1.33;;;10.30;99.90;;;;;;4990208;28;20209;-65
2023/01/12 05:06:09;;;;;;;1.63;1.43;;;10.20;99.90;;;;;;4990576;28;20208;-64
2023/01/12 05:11:33;;;;;;;1.63;1.40;;;10.20;99.90;;;;;;4989106;28;20213;-65
2023/01/12 05:14:00;;;;;;;1.40;1.20;;;10.20;99.90;;;;;;4990537;28;20202;-64
2023/01/12 05:16:28;;;;;;;1.30;1.20;;;10.20;99.90;;;;;;4984792;28;20226;-64
2023/01/12 05:18:55;;;;;;;1.17;1.13;;;10.20;99.90;;;;;;4990610;28;20237;-64
2023/01/12 05:21:25;;;;;;;1.23;1.13;;;10.20;99.90;;;;;;4990213;28;20198;-64
2023/01/12 05:23:54;;;;;;;1.27;1.17;;;10.20;99.90;;;;;;4990609;28;20213;-64
2023/01/12 05:26:23;;;;;;;1.50;1.40;;;10.20;99.90;;;;;;4989751;28;20256;-64
2023/01/12 05:28:54;;;;;;;1.33;1.23;;;10.20;99.90;;;;;;4989476;28;20226;-64
2023/01/12 05:31:24;;;;;;;1.43;1.33;;;10.20;99.90;;;;;;4990218;28;20305;-65
2023/01/12 05:33:56;;;;;;;1.43;1.33;;;10.20;99.90;;;;;;4994443;28;20206;-64
2023/01/12 05:36:38;;;;;;;1.47;1.37;;;10.10;99.90;;;;;;4993661;28;20246;-65
2023/01/12 05:39:16;;;;;;;1.33;1.23;;;10.20;99.90;;;;;;5083408;28;20222;-66
2023/01/12 05:44:30;;;;;;;1.77;1.50;;;10.10;99.90;;;;;;5017394;28;20194;-66
2023/01/12 05:47:02;;;;;;;2.27;1.50;;;10.10;99.90;;;;;;5022652;28;20218;-66
2023/01/12 05:49:30;;;;;;;1.30;1.20;;;10.10;99.90;;;;;;4989383;28;20419;-66
2023/01/12 05:52:01;;;;;;;1.50;1.40;;;10.10;99.90;;;;;;5023786;28;20213;-63
2023/01/12 05:54:50;;;;;;;1.50;1.40;;;10.10;99.90;;;;;;5030614;28;20206;-64
2023/01/12 05:57:28;;;;;;;1.20;1.17;;;10.10;99.90;;;;;;4983513;28;20222;-66
2023/01/12 06:00:01;;;;;;;1.30;1.20;;;10.10;99.90;;;;;;5005142;28;20224;-65
2023/01/12 06:02:29;;;;;;;1.23;1.03;;;10.10;99.90;;;;;;4988377;28;20293;-65
2023/01/12 06:04:56;;;;;;;1.30;1.20;;;10.10;99.90;;;;;;4991603;28;20298;-65
2023/01/12 06:07:29;;;;;;;1.97;1.57;;;10.20;99.90;;;;;;5014488;28;20226;-65
2023/01/12 06:10:01;;;;;;;1.00;1.00;;;10.20;99.90;;;;;;5004687;28;20213;-68
2023/01/12 06:15:29;;;;;;;1.40;1.30;;;10.30;99.90;;;;;;4994282;28;20205;-64
2023/01/12 06:18:06;;;;;;;1.03;1.03;;;10.30;99.90;;;;;;4999497;28;20222;-64
2023/01/12 06:20:35;;;;;;;1.60;1.17;;;10.30;99.90;;;;;;5026351;28;20336;-66
2023/01/12 06:23:12;;;;;;;1.13;1.03;;;10.30;99.90;;;;;;4991158;28;20260;-64
2023/01/12 06:25:41;;;;;;;2.23;1.20;;;10.40;99.90;;;;;;4989082;28;20293;-64
2023/01/12 06:28:12;;;;;;;1.10;1.10;;;10.40;99.90;;;;;;4988430;28;20291;-63
2023/01/12 06:30:42;;;;;;;1.23;1.13;;;10.40;99.90;;;;;;4989168;28;20214;-64
2023/01/12 06:33:10;;;;;;;1.13;1.10;;;10.40;99.90;;;;;;4989544;28;20595;-66
2023/01/12 06:35:41;;;;;;;1.10;1.10;;;10.40;99.90;;;;;;4989735;28;20206;-66
2023/01/12 06:38:09;;;;;;;1.30;1.20;;;10.50;99.90;;;;;;4997104;28;20228;-65
2023/01/12 06:40:38;;;;;;;1.20;1.10;;;10.40;99.90;;;;;;5009514;28;20198;-66
2023/01/12 06:43:10;;;;;;;0.83;0.83;;;10.40;99.90;;;;;;4981416;28;20638;-64
2023/01/12 06:45:38;;;;;;;1.30;1.20;;;10.40;99.90;;;;;;5021157;28;20229;-66
2023/01/12 06:48:07;;;;;;;1.33;1.23;;;10.40;99.90;;;;;;4986791;28;20276;-65
2023/01/12 06:50:35;;;;;;;1.20;1.10;;;10.40;99.90;;;;;;4988738;28;20209;-65
2023/01/12 06:53:06;;;;;;;1.40;1.13;;;10.40;99.90;;;;;;5022948;28;20283;-65
2023/01/12 06:55:34;;;;;;;2.13;1.50;;;10.40;99.90;;;;;;4988099;28;20206;-66
2023/01/12 06:58:06;;;;;;;1.37;1.27;;;10.40;99.90;;;;;;4986672;28;20224;-65
2023/01/12 07:00:37;;;;;;;0.97;0.97;;;10.40;99.90;;;;;;4989040;28;20206;-66
2023/01/12 07:03:05;;;;;;;0.80;0.80;;;10.40;99.90;;;;;;4985026;28;20217;-66
2023/01/12 07:05:32;;;;;;;1.07;1.00;;;10.40;99.90;;;;;;4988662;28;20209;-66
2023/01/12 07:08:02;;;;;;;1.03;0.93;;;10.40;99.90;;;;;;4992135;28;20320;-65
2023/01/12 07:10:31;;;;;;;1.20;1.10;;;10.40;99.90;;;;;;4990924;28;20636;-64
2023/01/12 07:13:01;;;;;;;1.20;1.10;;;10.40;99.90;;;;;;5020226;28;20939;-65
2023/01/12 07:15:37;;;;;;;1.10;1.00;;;10.40;99.90;;;;;;4992001;28;20255;-66
2023/01/12 07:18:06;;;;;;;1.00;1.00;;;10.40;99.90;;;;;;4987757;28;20270;-66
2023/01/12 07:20:35;;;;;;;1.10;1.00;;;10.40;99.90;;;;;;5024409;28;20202;-65
2023/01/12 07:23:05;;;;;;;1.30;1.20;;;10.50;99.90;;;;;;4992756;28;20289;-66
2023/01/12 07:25:37;;;;;;;1.27;1.17;;;10.50;99.90;;;;;;4990346;28;20236;-67
2023/01/12 07:28:06;;;;;;;1.20;1.10;;;10.50;99.90;;;;;;4995736;28;20919;-67
2023/01/12 07:30:33;;;;;;;1.07;1.00;;;10.50;99.90;;;;;;5000542;28;20308;-65
2023/01/12 07:33:08;;;;;;;1.17;1.07;;;10.50;99.90;;;;;;4987900;28;20598;-65
2023/01/12 07:35:38;;;;;;;0.93;0.93;;;10.50;99.90;;;;;;4990290;28;20855;-66
2023/01/12 07:38:16;;;;;;;1.27;1.10;;;10.50;99.90;;;;;;4988758;28;20328;-66
2023/01/12 07:40:45;;;;;;;1.20;1.10;;;10.60;99.90;;;;;;5022966;28;20693;-65
2023/01/12 07:43:22;;;;;;;1.33;1.17;;;10.50;99.90;;;;;;4991429;28;20700;-65
2023/01/12 07:45:58;;;;;;;1.20;1.10;;;10.50;99.90;;;;;;4991907;28;20210;-67
2023/01/12 07:48:36;;;;;;;1.10;1.10;;;10.50;99.90;;;;;;4986539;28;20238;-67
2023/01/12 07:51:05;;;;;;;1.10;1.10;;;10.60;99.90;;;;;;4990493;28;20210;-66
2023/01/12 07:53:34;;;;;;;1.10;1.10;;;10.60;99.90;;;;;;4991174;28;20206;-65
2023/01/12 07:56:15;;;;;;;2.03;1.53;;;10.60;99.90;;;;;;4990397;28;20210;-66
2023/01/12 07:58:46;;;;;;;1.30;1.20;;;10.70;99.90;;;;;;4988352;28;20201;-66
2023/01/12 08:01:21;;;;;;;1.10;1.10;;;10.60;99.90;;;;;;4996440;28;20214;-65
2023/01/12 08:04:02;;;;;;;1.40;1.30;;;10.70;99.90;;;;;;4993755;28;20292;-66
2023/01/12 08:06:34;;;;;;;1.03;0.93;;;10.70;99.90;;;;;;4990869;28;20232;-66
2023/01/12 08:09:03;;;;;;;1.40;1.30;;;10.70;99.90;;;;;;4991160;28;20264;-66
2023/01/12 08:11:35;;;;;;;1.40;1.30;;;10.70;99.90;;;;;;4991688;28;20198;-66
2023/01/12 08:14:11;;;;;;;1.20;1.10;;;10.80;99.90;;;;;;4995081;28;20214;-65
2023/01/12 08:16:55;;;;;;;1.47;1.30;;;10.70;99.90;;;;;;4992804;28;20245;-66
2023/01/12 08:19:37;;;;;;;1.13;1.10;;;10.80;99.90;;;;;;4995469;28;20234;-64
2023/01/12 08:22:15;;;;;;;1.17;1.17;;;10.80;99.90;;;;;;5002467;28;20719;-65
2023/01/12 08:24:52;;;;;;;0.80;0.80;;;10.80;99.90;;;;;;5004276;28;20641;-66
2023/01/12 08:27:37;;;;;;;1.20;1.10;;;10.80;99.90;;;;;;5003210;28;20245;-66
2023/01/12 08:30:11;;;;;;;1.30;1.20;;;10.80;99.90;;;;;;4998901;28;20229;-65
2023/01/12 08:32:40;;;;;;;1.50;1.40;;;10.80;99.90;;;;;;5000419;28;20202;-66
2023/01/12 08:35:12;;;;;;;1.45;1.35;;;10.80;99.90;;;;;;4995705;28;20253;-65
2023/01/12 08:37:42;;;;;;;1.33;1.23;;;10.80;99.90;;;;;;5000089;28;20275;-65
2023/01/12 08:40:13;;;;;;;1.00;1.00;;;10.80;99.90;;;;;;4996366;28;20202;-64
2023/01/12 08:42:45;;;;;;;1.75;1.20;;;10.90;99.90;;;;;;4997694;28;21021;-66
2023/01/12 08:45:12;;;;;;;1.20;1.10;;;10.80;99.90;;;;;;4998473;28;20280;-65
2023/01/12 08:47:43;;;;;;;1.73;1.20;;;10.80;99.90;;;;;;4990936;28;20218;-66
2023/01/12 08:50:13;;;;;;;1.13;1.03;;;10.80;99.90;;;;;;5021580;28;20206;-66
2023/01/12 08:52:40;;;;;;;1.23;1.10;;;10.90;99.90;;;;;;5002945;28;20199;-66
2023/01/12 08:55:10;;;;;;;1.60;1.50;;;10.90;99.90;;;;;;5007607;28;20206;-66
2023/01/12 08:57:48;;;;;;;1.23;1.13;;;10.80;99.90;;;;;;5005495;28;20230;-65
2023/01/12 09:00:19;;;;;;;1.20;1.10;;;10.90;99.90;;;;;;5002854;28;20675;-64
2023/01/12 09:02:48;;;;;;;1.10;1.10;;;10.90;99.90;;;;;;5000834;28;20206;-66
2023/01/12 09:05:27;;;;;;;1.30;1.20;;;11.00;99.90;;;;;;5004738;28;20248;-66
2023/01/12 09:07:57;;;;;;;1.10;1.10;;;11.00;99.90;;;;;;5001301;28;20735;-65
2023/01/12 09:10:24;;;;;;;1.00;1.00;;;11.00;99.90;;;;;;4992265;28;20261;-65
2023/01/12 09:12:51;;;;;;;1.40;1.03;;;11.00;99.90;;;;;;4986541;28;20246;-65
2023/01/12 09:15:24;;;;;;;1.40;1.30;;;11.10;99.90;;;;;;4983363;28;20248;-66
2023/01/12 09:17:57;;;;;;;0.80;0.80;;;11.10;99.90;;;;;;4986609;28;20236;-66
2023/01/12 09:20:32;;;;;;;1.00;1.00;;;11.10;99.90;;;;;;4988643;28;20206;-65
2023/01/12 09:23:04;;;;;;;1.13;1.10;;;11.10;99.90;;;;;;4984155;28;20309;-66
2023/01/12 09:25:44;;;;;;;1.43;1.33;;;11.10;99.90;;;;;;4990111;28;20210;-65
2023/01/12 09:28:23;;;;;;;1.88;1.20;;;11.10;99.90;;;;;;4999815;28;20275;-66
2023/01/12 09:30:50;;;;;;;1.02;1.02;;;11.10;99.90;;;;;;5005554;28;20221;-65
2023/01/12 09:33:33;;;;;;;1.17;1.13;;;11.10;99.90;;;;;;5002133;28;20694;-66
2023/01/12 09:36:06;;;;;;;0.93;0.90;;;11.10;99.90;;;;;;4998005;28;20202;-65
2023/01/12 09:38:40;;;;;;;1.00;0.90;;;11.10;99.90;;;;;;4999283;28;20738;-66
2023/01/12 09:41:17;;;;;;;1.97;1.20;;;11.10;99.90;;;;;;4999475;28;20206;-66
2023/01/12 09:47:06;;;;;;;1.13;1.03;;;11.10;99.90;;;;;;4998390;28;20228;-66
2023/01/12 09:49:39;;;;;;;0.90;0.90;;;11.10;99.90;;;;;;5001176;28;20225;-65
2023/01/12 09:52:15;;;;;;;2.10;1.10;;;11.10;99.90;;;;;;4998388;28;20202;-66
2023/01/12 09:54:46;;;;;;;0.80;0.80;;;11.20;99.90;;;;;;5015556;28;20210;-66
2023/01/12 09:57:40;;;;;;;0.93;0.93;;;11.20;99.90;;;;;;4989546;28;20257;-66
2023/01/12 10:00:13;;;;;;;0.70;0.70;;;11.20;99.90;;;;;;4998416;28;20690;-66
2023/01/12 10:02:44;;;;;;;0.60;0.60;;;11.20;99.90;;;;;;4993793;28;20338;-66
2023/01/12 10:05:22;;;;;;;0.60;0.60;;;11.30;99.90;;;;;;5001944;28;20206;-66
2023/01/12 10:08:02;;;;;;;0.60;0.60;;;11.30;99.90;;;;;;5006876;28;20233;-67
2023/01/12 10:13:17;;;;;;;0.70;0.70;;;11.30;99.90;;;;;;4998122;28;20229;-65
2023/01/12 10:15:48;;;;;;;0.65;0.63;;;11.40;99.90;;;;;;4998143;28;20240;-65
2023/01/12 10:18:24;;;;;;;2.33;0.70;;;11.50;99.90;;;;;;5004117;28;20284;-65
2023/01/12 10:20:52;;;;;;;0.60;0.60;;;11.50;99.90;;;;;;5008040;28;20261;-67
2023/01/12 10:23:23;;;;;;;0.57;0.57;;;11.60;99.90;;;;;;5005095;28;20202;-66
2023/01/12 10:25:56;;;;;;;0.63;0.63;;;11.70;99.90;;;;;;4997345;28;20202;-67
2023/01/12 10:28:25;;;;;;;0.70;0.70;;;11.70;99.90;;;;;;4987349;28;20286;-66
2023/01/12 10:30:53;;;;;;;0.60;0.60;;;11.80;99.90;;;;;;4990320;28;20344;-66
2023/01/12 10:33:21;;;;;;;0.67;0.67;;;11.80;99.90;;;;;;4995228;28;20209;-67
2023/01/12 10:35:55;;;;;;;0.57;0.57;;;11.90;99.90;;;;;;4996239;28;20212;-66
2023/01/12 10:38:26;;;;;;;0.40;0.40;;;12.00;99.90;;;;;;4994206;28;20236;-65
2023/01/12 10:41:16;;;;;;;0.60;0.60;;;11.90;99.90;;;;;;4991518;28;20211;-66
2023/01/12 10:43:44;;;;;;;0.57;0.57;;;12.00;99.90;;;;;;4995477;28;20682;-66
2023/01/12 10:46:15;;;;;;;0.77;0.70;;;12.00;99.90;;;;;;4990071;28;20211;-66
2023/01/12 10:48:43;;;;;;;0.65;0.65;;;12.00;99.90;;;;;;4989967;28;20293;-66
2023/01/12 10:51:22;;;;;;;0.70;0.70;;;12.00;99.90;;;;;;4990816;28;20205;-66
2023/01/12 10:53:54;;;;;;;0.57;0.57;;;11.90;99.90;;;;;;4987997;28;20213;-66
2023/01/12 10:56:26;;;;;;;1.10;0.70;;;12.00;99.90;;;;;;4988413;28;20293;-65
2023/01/12 10:58:55;;;;;;;0.60;0.60;;;12.00;99.90;;;;;;4989872;28;20205;-65
2023/01/12 11:01:22;;;;;;;0.60;0.60;;;12.00;99.90;;;;;;4994583;28;20206;-66
2023/01/12 11:03:50;;;;;;;0.70;0.70;;;12.00;99.90;;;;;;4993288;28;20210;-66
2023/01/12 11:06:29;;;;;;;0.50;0.50;;;12.00;99.90;;;;;;4994804;28;20201;-66
2023/01/12 11:08:58;;;;;;;0.47;0.47;;;12.00;99.90;;;;;;4991088;28;20205;-66
2023/01/12 11:11:31;;;;;;;0.77;0.77;;;12.00;99.90;;;;;;4999369;28;20247;-65
2023/01/12 11:14:00;;;;;;;0.30;0.30;;;11.90;99.90;;;;;;4994438;28;20209;-65
2023/01/12 11:16:32;;;;;;;0.93;0.88;;;12.00;99.90;;;;;;5005059;28;20217;-66
2023/01/12 11:19:16;;;;;;;0.60;0.60;;;12.00;99.90;;;;;;5001523;28;20277;-66
2023/01/12 11:21:47;;;;;;;0.60;0.60;;;12.00;99.90;;;;;;4999048;28;21013;-64
2023/01/12 11:24:29;;;;;;;0.77;0.77;;;11.90;99.90;;;;;;5000024;28;20202;-64
2023/01/12 11:27:00;;;;;;;0.60;0.60;;;12.10;99.90;;;;;;4991532;28;20251;-64
2023/01/12 11:29:35;;;;;;;0.53;0.53;;;12.20;99.90;;;;;;4997002;28;20232;-66
2023/01/12 11:32:07;;;;;;;0.80;0.80;;;12.20;99.90;;;;;;4992665;28;20209;-66
2023/01/12 11:34:39;;;;;;;0.60;0.60;;;12.30;99.90;;;;;;4991374;28;20263;-66
2023/01/12 11:37:11;;;;;;;0.50;0.50;;;12.30;99.90;;;;;;4988455;28;20229;-67
2023/01/12 11:39:50;;;;;;;0.67;0.67;;;12.30;99.90;;;;;;4989317;28;20701;-66
2023/01/12 11:45:12;;;;;;;0.53;0.53;;;12.30;99.90;;;;;;4996373;28;20206;-66
2023/01/12 11:47:42;;;;;;;0.73;0.73;;;12.20;99.90;;;;;;4999120;28;20788;-65
2023/01/12 11:50:15;;;;;;;0.50;0.50;;;12.20;99.90;;;;;;4991358;28;20309;-65
2023/01/12 11:52:43;;;;;;;0.50;0.50;;;12.30;99.90;;;;;;4990604;28;20198;-67
2023/01/12 11:55:15;;;;;;;0.50;0.50;;;12.30;99.90;;;;;;4989766;28;20202;-66
2023/01/12 11:57:52;;;;;;;0.73;0.70;;;12.20;99.90;;;;;;4991431;28;20222;-65
2023/01/12 12:00:49;;;;;;;0.60;0.60;;;12.20;99.90;;;;;;4994047;28;20210;-65
2023/01/12 12:03:37;;;;;;;0.80;0.80;;;12.20;99.90;;;;;;4987686;28;20203;-66
2023/01/12 12:06:20;;;;;;;0.45;0.45;;;12.20;99.90;;;;;;4982257;28;20210;-66
2023/01/12 12:08:57;;;;;;;0.68;0.68;;;12.10;99.90;;;;;;4986601;28;20208;-65
2023/01/12 12:11:34;;;;;;;0.73;0.73;;;12.20;99.90;;;;;;4990350;28;20716;-64
2023/01/12 12:14:10;;;;;;;0.80;0.80;;;12.20;99.90;;;;;;4989737;28;20209;-66
2023/01/12 12:16:46;;;;;;;0.80;0.80;;;12.20;99.90;;;;;;4990460;28;20230;-65
2023/01/12 12:19:27;;;;;;;0.70;0.70;;;12.10;99.90;;;;;;4989169;28;20198;-66
2023/01/12 12:22:02;;;;;;;0.70;0.70;;;12.20;99.90;;;;;;4992220;28;20202;-65
2023/01/12 12:24:50;;;;;;;0.60;0.60;;;12.20;99.90;;;;;;4988238;28;20198;-65
2023/01/12 12:27:31;;;;;;;0.53;0.53;;;12.10;99.90;;;;;;4993018;28;20218;-66
2023/01/12 12:30:22;;;;;;;0.50;0.50;;;12.10;99.90;;;;;;4990325;28;20226;-66
2023/01/12 12:32:57;;;;;;;0.60;0.60;;;12.10;99.90;;;;;;4990139;28;20686;-65
2023/01/12 12:35:35;;;;;;;0.47;0.47;;;12.20;99.90;;;;;;4990731;28;20657;-64
2023/01/12 12:38:14;;;;;;;0.37;0.37;;;12.20;99.90;;;;;;4991022;28;20245;-66
2023/01/12 12:46:32;;;;;;;0.50;0.50;;;12.20;99.90;;;;;;4989608;28;20252;-66
2023/01/12 12:49:04;;;;;;;0.50;0.50;;;12.20;99.90;;;;;;4991494;28;20216;-66
2023/01/12 12:51:34;;;;;;;0.87;0.87;;;12.20;99.90;;;;;;4991066;28;20222;-66
2023/01/12 12:54:05;;;;;;;0.63;0.63;;;12.20;99.90;;;;;;4990881;28;20663;-66
2023/01/12 12:56:35;;;;;;;0.40;0.40;;;12.20;99.90;;;;;;4990628;28;20237;-66
2023/01/12 12:59:03;;;;;;;0.60;0.60;;;12.20;99.90;;;;;;4990397;28;20205;-65
2023/01/12 13:01:41;;;;;;;0.60;0.60;;;12.20;99.90;;;;;;4990505;28;20209;-66
2023/01/12 13:04:11;;;;;;;0.80;0.80;;;12.20;99.90;;;;;;4983203;28;20617;-65
2023/01/12 13:06:40;;;;;;;0.67;0.67;;;12.10;99.90;;;;;;4990384;28;20313;-65
2023/01/12 13:09:42;;;;;;;0.63;0.63;;;12.10;99.90;;;;;;4982766;28;20199;-65
2023/01/12 13:12:34;;;;;;;0.73;0.73;;;12.10;99.90;;;;;;4983071;28;20690;-65
2023/01/12 13:15:31;;;;;;;0.93;0.90;;;12.10;99.90;;;;;;4994375;28;20571;-65
2023/01/12 13:17:58;;;;;;;0.60;0.60;;;12.20;99.90;;;;;;5002213;28;20242;-66
2023/01/12 13:21:00;;;;;;;0.40;0.40;;;12.20;99.90;;;;;;4991032;28;20595;-66
2023/01/12 13:23:50;;;;;;;0.50;0.50;;;12.20;99.90;;;;;;4987004;28;20285;-65
2023/01/12 13:26:50;;;;;;;0.60;0.60;;;12.20;99.90;;;;;;4984282;28;20292;-67
2023/01/12 13:29:42;;;;;;;0.60;0.60;;;12.20;99.90;;;;;;4983670;28;20307;-66
2023/01/12 13:32:51;;;;;;;0.47;0.47;;;12.10;99.90;;;;;;4986051;28;20689;-66
2023/01/12 13:35:52;;;;;;;0.65;0.52;;;12.10;99.90;;;;;;4984782;28;20235;-65
2023/01/12 13:38:31;;;;;;;0.30;0.30;;;12.20;99.90;;;;;;5016737;28;20230;-65
2023/01/12 13:44:01;;;;;;;0.50;0.50;;;12.10;99.90;;;;;;4989918;28;20197;-65
2023/01/12 13:46:32;;;;;;;0.43;0.43;;;12.10;99.90;;;;;;4990711;28;20222;-65
2023/01/12 13:48:59;;;;;;;0.40;0.40;;;12.20;99.90;;;;;;4991684;28;20213;-65
2023/01/12 13:51:33;;;;;;;0.30;0.30;;;12.20;99.90;;;;;;4993088;28;20226;-66
2023/01/12 13:54:03;;;;;;;0.60;0.60;;;12.20;99.90;;;;;;4997691;28;20194;-68
2023/01/12 13:56:30;;;;;;;0.37;0.37;;;12.20;99.90;;;;;;5010250;28;20226;-65
2023/01/12 13:59:02;;;;;;;0.30;0.30;;;12.20;99.90;;;;;;5006057;28;20241;-66
2023/01/12 14:01:32;;;;;;;0.50;0.50;;;12.20;99.90;;;;;;4989210;28;20199;-66
2023/01/12 14:04:26;;;;;;;0.30;0.30;;;12.10;99.90;;;;;;4989505;28;20216;-65
2023/01/12 14:07:03;;;;;;;0.60;0.60;;;12.20;99.90;;;;;;4989534;28;20236;-65
2023/01/12 14:09:41;;;;;;;0.50;0.50;;;12.20;99.90;;;;;;4989457;28;20210;-66